Time;durP1;ratioP1;P1;durP2;ratioP2;P2;SDS_P1;SDS_P2;PMS_P1;PMS_P2;Temp;Humidity;BMP_temperature;BMP_pressure;BME280_temperature;BME280_humidity;BME280_pressure;Samples;Min_cycle;Max_cycle;Signal;HPM_P1;HPM_P2
2023/08/02 00:02:19;;;;;;;7.03;4.00;;;;;;;-145.18;100.00;46654.53;5032540;28;20108;-68
2023/08/02 00:04:44;;;;;;;4.53;3.27;;;;;;;-145.18;100.00;46660.41;5015698;28;20177;-68
2023/08/02 00:07:09;;;;;;;5.57;3.43;;;;;;;-145.18;100.00;46654.53;5013451;28;20394;-68
2023/08/02 00:09:35;;;;;;;9.67;3.90;;;;;;;-145.18;100.00;46656.50;5026706;28;20083;-68
2023/08/02 00:12:00;;;;;;;7.40;4.00;;;;;;;-145.18;100.00;46658.44;5013443;28;20390;-69
2023/08/02 00:14:26;;;;;;;8.20;3.80;;;;;;;-145.18;100.00;46660.41;5013503;28;20037;-69
2023/08/02 00:16:51;;;;;;;12.13;4.87;;;;;;;-145.18;100.00;46650.63;5013410;28;20038;-69
2023/08/02 00:19:17;;;;;;;10.27;4.43;;;;;;;-145.18;100.00;46656.50;5026340;28;20032;-68
2023/08/02 00:21:43;;;;;;;12.63;4.67;;;;;;;-145.18;100.00;46656.50;5013597;28;20052;-69
2023/08/02 00:24:09;;;;;;;8.57;3.90;;;;;;;-145.18;100.00;46652.59;5013148;28;20022;-69
2023/08/02 00:26:34;;;;;;;7.43;3.93;;;;;;;-145.18;100.00;46648.69;5023842;28;20025;-69
2023/08/02 00:29:00;;;;;;;16.03;3.83;;;;;;;-145.18;100.00;46654.53;5032873;28;20033;-69
2023/08/02 00:31:25;;;;;;;14.93;3.60;;;;;;;-145.18;100.00;46650.63;5032992;28;20029;-69
2023/08/02 00:33:51;;;;;;;8.50;3.73;;;;;;;-145.18;100.00;46646.72;5032380;28;20444;-64
2023/08/02 00:36:16;;;;;;;8.27;3.80;;;;;;;-145.18;100.00;46648.69;5032610;28;20029;-64
2023/08/02 00:38:42;;;;;;;11.07;4.23;;;;;;;-145.18;100.00;46650.63;5032115;28;20045;-64
2023/08/02 00:41:09;;;;;;;7.50;4.17;;;;;;;-145.18;100.00;46652.59;5032544;28;20029;-64
2023/08/02 00:43:52;;;;;;;10.60;4.30;;;;;;;-145.18;100.00;46650.63;5019077;28;20021;-64
2023/08/02 00:46:20;;;;;;;7.67;2.63;;;;;;;-145.18;100.00;46652.59;5014320;28;20036;-64
2023/08/02 00:48:46;;;;;;;13.33;4.30;;;;;;;-145.18;100.00;46652.59;5032907;28;20059;-64
2023/08/02 00:51:15;;;;;;;8.70;3.27;;;;;;;-145.18;100.00;46650.63;5032216;28;20033;-64
2023/08/02 00:53:44;;;;;;;9.00;3.73;;;;;;;-145.18;100.00;46644.78;5008108;28;20033;-64
2023/08/02 00:56:11;;;;;;;8.90;3.80;;;;;;;-145.18;100.00;46650.63;5012956;28;20407;-64
2023/08/02 00:58:36;;;;;;;6.47;3.80;;;;;;;-145.18;100.00;46652.59;5019737;28;20109;-64
2023/08/02 01:01:08;;;;;;;9.70;3.73;;;;;;;-145.18;100.00;46644.78;5009585;28;20137;-69
2023/08/02 01:03:39;;;;;;;9.47;3.63;;;;;;;-145.18;100.00;46644.78;5026094;28;20393;-69
2023/08/02 01:06:46;;;;;;;11.63;3.80;;;;;;;-145.18;100.00;46644.78;5028598;28;20496;-68
2023/08/02 01:09:25;;;;;;;14.20;3.97;;;;;;;-145.18;100.00;46648.69;5014271;28;20489;-68
2023/08/02 01:12:15;;;;;;;8.63;3.60;;;;;;;-145.18;100.00;46646.72;5031933;28;20438;-68
2023/08/02 01:14:43;;;;;;;11.70;3.50;;;;;;;-145.18;100.00;46648.69;5019098;28;20063;-69
2023/08/02 01:17:11;;;;;;;8.67;3.27;;;;;;;-145.18;100.00;46644.78;5032262;28;20040;-68
2023/08/02 01:19:37;;;;;;;10.60;3.57;;;;;;;-145.18;100.00;46648.69;5011273;28;20081;-68
2023/08/02 01:22:03;;;;;;;10.07;3.80;;;;;;;-145.18;100.00;46638.91;5010971;28;20116;-69
2023/08/02 01:24:33;;;;;;;7.03;3.63;;;;;;;-145.18;100.00;46644.78;5032039;28;20025;-69
2023/08/02 01:27:04;;;;;;;9.93;3.17;;;;;;;-145.18;100.00;46642.81;5031673;28;20162;-68
2023/08/02 01:29:31;;;;;;;13.53;3.43;;;;;;;-145.18;100.00;46644.78;5032308;28;20029;-69
2023/08/02 01:31:57;;;;;;;10.43;3.47;;;;;;;-145.18;100.00;46642.81;5032113;28;20107;-69
2023/08/02 01:34:23;;;;;;;7.37;3.10;;;;;;;-145.18;100.00;46638.91;5032211;28;20076;-69
2023/08/02 01:36:49;;;;;;;9.70;3.20;;;;;;;-145.18;100.00;46635.00;5010749;28;20450;-69
2023/08/02 01:39:16;;;;;;;9.80;3.43;;;;;;;-145.18;100.00;46644.78;5031449;28;20029;-69
2023/08/02 01:41:42;;;;;;;6.33;2.83;;;;;;;-145.18;100.00;46636.94;5032066;28;20108;-69
2023/08/02 01:44:07;;;;;;;8.37;3.13;;;;;;;-145.18;100.00;46644.78;5031972;28;20537;-69
2023/08/02 01:46:32;;;;;;;6.47;3.13;;;;;;;-145.18;100.00;46638.91;5032275;28;20429;-69
2023/08/02 01:48:58;;;;;;;6.37;3.20;;;;;;;-145.18;100.00;46638.91;5027526;28;20033;-69
2023/08/02 01:51:24;;;;;;;8.07;3.40;;;;;;;-145.18;100.00;46640.88;5002802;28;20037;-69
2023/08/02 01:53:49;;;;;;;7.73;2.93;;;;;;;-145.18;100.00;46638.91;5027586;28;20579;-68
2023/08/02 01:56:15;;;;;;;6.10;3.00;;;;;;;-145.18;100.00;46640.88;5031973;28;20037;-72
2023/08/02 01:58:40;;;;;;;9.33;3.03;;;;;;;-145.18;100.00;46640.88;5013867;28;20025;-68
2023/08/02 02:01:06;;;;;;;8.03;3.17;;;;;;;-145.18;100.00;46642.81;5031580;28;20136;-69
2023/08/02 02:03:31;;;;;;;7.60;3.00;;;;;;;-145.18;100.00;46638.91;5031821;28;20041;-69
2023/08/02 02:05:56;;;;;;;10.10;2.80;;;;;;;-145.18;100.00;46636.94;5013870;28;20043;-69
2023/08/02 02:08:22;;;;;;;7.87;3.30;;;;;;;-145.18;100.00;46640.88;5031684;28;20384;-69
2023/08/02 02:10:54;;;;;;;10.53;2.83;;;;;;;-145.18;100.00;46636.94;5032129;28;20041;-69
2023/08/02 02:13:23;;;;;;;8.83;2.27;;;;;;;-145.18;100.00;46638.91;5031151;28;20118;-68
2023/08/02 02:15:48;;;;;;;9.03;3.50;;;;;;;-145.18;100.00;46638.91;5031226;28;20163;-64
2023/08/02 02:18:14;;;;;;;7.97;2.97;;;;;;;-145.18;100.00;46640.88;5034229;28;20108;-64
2023/08/02 02:20:39;;;;;;;7.80;3.10;;;;;;;-145.18;100.00;46640.88;5035801;28;20060;-65
2023/08/02 02:23:05;;;;;;;9.27;3.40;;;;;;;-145.18;100.00;46640.88;5035176;28;20119;-65
2023/08/02 02:25:30;;;;;;;10.53;3.73;;;;;;;-145.18;100.00;46642.81;5034047;28;20037;-64
2023/08/02 02:27:55;;;;;;;9.17;3.70;;;;;;;-145.18;100.00;46636.94;5035447;28;20469;-64
2023/08/02 02:30:21;;;;;;;7.20;3.23;;;;;;;-145.18;100.00;46638.91;5035219;28;20492;-64
2023/08/02 02:32:47;;;;;;;10.60;3.43;;;;;;;-145.18;100.00;46638.91;5027999;28;20030;-64
2023/08/02 02:35:12;;;;;;;6.67;2.73;;;;;;;-145.18;100.00;46635.00;5016318;28;20046;-64
2023/08/02 02:37:38;;;;;;;9.77;3.70;;;;;;;-145.18;100.00;46660.41;5035342;28;20056;-64
2023/08/02 02:40:07;;;;;;;6.10;3.60;;;;;;;-145.18;100.00;46640.88;5032102;28;20026;-64
2023/08/02 02:42:33;;;;;;;7.33;3.20;;;;;;;-145.18;100.00;46636.94;5017133;28;20120;-64
2023/08/02 02:44:58;;;;;;;11.20;3.47;;;;;;;-145.18;100.00;46636.94;5034840;28;20045;-64
2023/08/02 02:47:24;;;;;;;10.23;3.43;;;;;;;-145.18;100.00;46636.94;5034951;28;20114;-64
2023/08/02 02:49:49;;;;;;;7.67;3.00;;;;;;;-145.18;100.00;46642.81;5035001;28;20074;-64
2023/08/02 02:52:14;;;;;;;8.30;3.50;;;;;;;-145.18;100.00;46640.88;5035198;28;20044;-64
2023/08/02 02:54:40;;;;;;;12.40;4.07;;;;;;;-145.18;100.00;46635.00;5035346;28;20382;-64
2023/08/02 02:57:06;;;;;;;9.90;3.70;;;;;;;-145.18;100.00;46635.00;5029055;28;20021;-64
2023/08/02 02:59:32;;;;;;;10.43;4.00;;;;;;;-145.18;100.00;46633.06;5035015;28;20045;-64
2023/08/02 03:02:00;;;;;;;7.83;4.03;;;;;;;-145.18;100.00;46638.91;5016737;28;20472;-64
2023/08/02 03:04:26;;;;;;;8.83;3.33;;;;;;;-145.18;100.00;46633.06;5035167;28;20397;-64
2023/08/02 03:06:52;;;;;;;7.57;3.70;;;;;;;-145.18;100.00;46635.00;5034507;28;20024;-64
2023/08/02 03:09:17;;;;;;;7.80;3.67;;;;;;;-145.18;100.00;46636.94;5034564;28;20038;-64
2023/08/02 03:11:43;;;;;;;9.30;3.03;;;;;;;-145.18;100.00;46636.94;5034885;28;20091;-64
2023/08/02 03:14:09;;;;;;;12.20;3.87;;;;;;;-145.18;100.00;46640.88;5034739;28;20122;-64
2023/08/02 03:16:34;;;;;;;10.03;3.33;;;;;;;-145.18;100.00;46636.94;5034534;28;20076;-64
2023/08/02 03:18:59;;;;;;;10.53;3.53;;;;;;;-145.18;100.00;46636.94;5034357;28;20037;-63
2023/08/02 03:21:25;;;;;;;11.27;3.33;;;;;;;-145.18;100.00;46638.91;5034250;28;20117;-64
2023/08/02 03:23:50;;;;;;;5.83;2.93;;;;;;;-145.18;100.00;46640.88;5034742;28;20033;-64
2023/08/02 03:26:15;;;;;;;7.73;3.03;;;;;;;-145.18;100.00;46638.91;5034439;28;20393;-64
2023/08/02 03:28:41;;;;;;;9.13;3.67;;;;;;;-145.18;100.00;46638.91;5033492;28;20120;-64
2023/08/02 03:31:06;;;;;;;9.13;3.07;;;;;;;-145.18;100.00;46638.91;5034152;28;20041;-64
2023/08/02 03:33:32;;;;;;;9.53;3.13;;;;;;;-145.18;100.00;46636.94;5034189;28;20033;-64
2023/08/02 03:35:57;;;;;;;5.73;3.03;;;;;;;-145.18;100.00;46638.91;5034220;28;20045;-64
2023/08/02 03:38:22;;;;;;;7.13;2.87;;;;;;;-145.18;100.00;46636.94;5034228;28;20057;-64
2023/08/02 03:40:48;;;;;;;11.30;3.40;;;;;;;-145.18;100.00;46638.91;5034322;28;20025;-64
2023/08/02 03:43:13;;;;;;;6.77;2.80;;;;;;;-145.18;100.00;46636.94;5034430;28;20404;-65
2023/08/02 03:45:38;;;;;;;8.00;3.03;;;;;;;-145.18;100.00;46635.00;5012123;28;20030;-64
2023/08/02 03:48:04;;;;;;;5.47;3.00;;;;;;;-145.18;100.00;46636.94;5032132;28;20493;-64
2023/08/02 03:50:30;;;;;;;7.47;3.33;;;;;;;-145.18;100.00;46640.88;5012002;28;20604;-65
2023/08/02 03:52:55;;;;;;;8.80;3.13;;;;;;;-145.18;100.00;46640.88;5030345;28;20512;-64
2023/08/02 03:55:21;;;;;;;10.73;3.10;;;;;;;-145.18;100.00;46640.88;5033685;28;20044;-64
2023/08/02 03:57:46;;;;;;;6.50;2.93;;;;;;;-145.18;100.00;46638.91;5011884;28;20102;-64
2023/08/02 04:00:12;;;;;;;10.10;2.60;;;;;;;-145.18;100.00;46638.91;5009355;28;20082;-64
2023/08/02 04:02:37;;;;;;;6.60;2.53;;;;;;;-145.18;100.00;46640.88;5014109;28;20038;-64
2023/08/02 04:05:03;;;;;;;6.53;3.30;;;;;;;-145.18;100.00;46638.91;5012898;28;20030;-64
2023/08/02 04:07:28;;;;;;;7.43;3.03;;;;;;;-145.18;100.00;46638.91;5013148;28;20041;-64
2023/08/02 04:09:53;;;;;;;9.63;2.70;;;;;;;-145.18;100.00;46636.94;5012873;28;20029;-65
2023/08/02 04:12:19;;;;;;;4.57;2.60;;;;;;;-145.18;100.00;46642.81;5013063;28;20095;-64
2023/08/02 04:14:45;;;;;;;7.57;3.27;;;;;;;-145.18;100.00;46644.78;5010098;28;20033;-64
2023/08/02 04:17:11;;;;;;;5.43;2.03;;;;;;;-145.18;100.00;46640.88;5013807;28;20026;-64
2023/08/02 04:19:37;;;;;;;7.87;2.83;;;;;;;-145.18;100.00;46635.00;5013801;28;20084;-64
2023/08/02 04:22:02;;;;;;;13.07;3.87;;;;;;;-145.18;100.00;46638.91;5013927;28;20026;-64
2023/08/02 04:24:28;;;;;;;10.63;3.20;;;;;;;-145.18;100.00;46636.94;5012628;28;20482;-64
2023/08/02 04:26:53;;;;;;;8.73;3.13;;;;;;;-145.18;100.00;46636.94;5013410;28;20033;-64
2023/08/02 04:29:19;;;;;;;4.57;2.73;;;;;;;-145.18;100.00;46635.00;5011967;28;20029;-64
2023/08/02 04:31:44;;;;;;;7.27;3.30;;;;;;;-145.18;100.00;46635.00;5013059;28;20032;-64
2023/08/02 04:34:10;;;;;;;11.47;3.27;;;;;;;-145.18;100.00;46633.06;4983187;28;20037;-64
2023/08/02 04:36:35;;;;;;;9.43;3.30;;;;;;;-145.18;100.00;46633.06;5013457;28;20389;-64
2023/08/02 04:39:03;;;;;;;5.60;3.20;;;;;;;-145.18;100.00;46635.00;5023126;28;20500;-64
2023/08/02 04:41:29;;;;;;;8.70;3.60;;;;;;;-145.18;100.00;46633.06;5007132;28;20030;-64
2023/08/02 04:43:54;;;;;;;10.33;3.73;;;;;;;-145.18;100.00;46636.94;5012149;28;20076;-64
2023/08/02 04:46:21;;;;;;;14.23;3.67;;;;;;;-145.18;100.00;46633.06;5012778;28;20470;-64
2023/08/02 04:48:46;;;;;;;12.23;4.30;;;;;;;-145.18;100.00;46631.09;5012849;28;20386;-64
2023/08/02 04:51:12;;;;;;;6.43;3.77;;;;;;;-145.18;100.00;46638.91;5012130;28;20030;-64
2023/08/02 04:53:38;;;;;;;10.47;4.10;;;;;;;-145.18;100.00;46633.06;5013013;28;20029;-64
2023/08/02 04:56:08;;;;;;;10.37;3.93;;;;;;;-145.18;100.00;46629.13;5005504;28;20030;-64
2023/08/02 04:58:34;;;;;;;6.20;3.63;;;;;;;-145.18;100.00;46635.00;5014419;28;20042;-64
2023/08/02 05:01:03;;;;;;;9.20;4.37;;;;;;;-145.18;100.00;46633.06;5018813;28;20634;-64
2023/08/02 05:03:28;;;;;;;10.63;4.10;;;;;;;-145.18;100.00;46631.09;5030251;28;20124;-64
2023/08/02 05:06:01;;;;;;;12.37;4.60;;;;;;;-145.18;100.00;46636.94;5028956;28;20116;-64
2023/08/02 05:08:30;;;;;;;13.37;4.40;;;;;;;-145.18;100.00;46635.00;5025320;28;20040;-64
2023/08/02 05:10:55;;;;;;;10.07;4.23;;;;;;;-145.18;100.00;46633.06;5028521;28;20028;-65
2023/08/02 05:13:25;;;;;;;9.10;4.50;;;;;;;-145.18;100.00;46631.09;5007880;28;20030;-64
2023/08/02 05:15:52;;;;;;;9.90;4.43;;;;;;;-145.18;100.00;46635.00;5019014;28;20113;-64
2023/08/02 05:18:17;;;;;;;10.53;5.10;;;;;;;-145.18;100.00;46629.13;5032009;28;20034;-64
2023/08/02 05:20:43;;;;;;;9.87;4.40;;;;;;;-145.18;100.00;46636.94;5032378;28;20378;-64
2023/08/02 05:23:08;;;;;;;9.80;4.53;;;;;;;-145.18;100.00;46635.00;5032325;28;20025;-65
2023/08/02 05:25:34;;;;;;;8.53;4.20;;;;;;;-145.18;100.00;46636.94;5032230;28;20116;-64
2023/08/02 05:28:00;;;;;;;12.30;4.40;;;;;;;-145.18;100.00;46631.09;5032728;28;20040;-64
2023/08/02 05:30:30;;;;;;;11.13;3.77;;;;;;;-145.18;100.00;46640.88;5030289;28;20025;-64
2023/08/02 05:32:56;;;;;;;12.80;4.80;;;;;;;-145.18;100.00;46629.13;5009129;28;20044;-65
2023/08/02 05:35:23;;;;;;;8.40;4.17;;;;;;;-145.18;100.00;46631.09;5028426;28;20033;-64
2023/08/02 05:37:48;;;;;;;10.03;4.03;;;;;;;-145.18;100.00;46635.00;5028478;28;20470;-64
2023/08/02 05:40:14;;;;;;;9.27;5.00;;;;;;;-145.18;100.00;46631.09;5033045;28;20041;-64
2023/08/02 05:42:39;;;;;;;8.83;4.37;;;;;;;-145.18;100.00;46631.09;5028517;28;20029;-64
2023/08/02 05:45:05;;;;;;;9.77;4.77;;;;;;;-145.18;100.00;46629.13;5030116;28;20037;-64
2023/08/02 05:47:31;;;;;;;7.03;4.60;;;;;;;-145.18;100.00;46629.13;5018126;28;20477;-64
2023/08/02 05:49:57;;;;;;;8.07;4.73;;;;;;;-145.18;100.00;46631.09;5023930;28;20044;-64
2023/08/02 05:52:22;;;;;;;10.83;4.77;;;;;;;-145.18;100.00;46629.13;5029093;28;20040;-64
2023/08/02 05:54:48;;;;;;;8.77;4.57;;;;;;;-145.18;100.00;46629.13;5004952;28;20045;-64
2023/08/02 05:57:13;;;;;;;6.57;4.23;;;;;;;-145.18;100.00;46629.13;5029942;28;20030;-64
2023/08/02 05:59:39;;;;;;;7.60;4.73;;;;;;;-145.18;100.00;46627.19;5021251;28;20394;-64
2023/08/02 06:02:06;;;;;;;7.53;3.93;;;;;;;-145.18;100.00;46627.19;5019585;28;20144;-64
2023/08/02 06:04:35;;;;;;;7.87;3.40;;;;;;;-145.18;100.00;46629.13;5001636;28;20041;-64
2023/08/02 06:07:00;;;;;;;7.97;3.97;;;;;;;-145.18;100.00;46621.31;4999101;28;20398;-64
2023/08/02 06:09:26;;;;;;;6.33;3.60;;;;;;;-145.18;100.00;46625.22;5019880;28;20042;-64
2023/08/02 06:11:51;;;;;;;5.67;4.20;;;;;;;-145.18;100.00;46625.22;5016613;28;20549;-64
2023/08/02 06:14:16;;;;;;;5.20;3.07;;;;;;;-145.18;100.00;46623.28;5012667;28;20049;-64
2023/08/02 06:16:42;;;;;;;8.57;4.20;;;;;;;-145.18;100.00;46619.38;5011778;28;20041;-64
2023/08/02 06:19:08;;;;;;;6.77;3.57;;;;;;;-145.18;100.00;46623.28;5020151;28;20452;-64
2023/08/02 06:21:34;;;;;;;6.20;3.50;;;;;;;-145.18;100.00;46623.28;5014357;28;20025;-64
2023/08/02 06:24:00;;;;;;;6.03;4.00;;;;;;;-145.18;100.00;46623.28;5009557;28;20075;-64
2023/08/02 06:26:27;;;;;;;7.10;4.37;;;;;;;-145.18;100.00;46625.22;5008913;28;20061;-64
2023/08/02 06:28:52;;;;;;;7.77;4.30;;;;;;;-145.18;100.00;46621.31;5011413;28;20025;-65
2023/08/02 06:31:18;;;;;;;5.97;3.80;;;;;;;-145.18;100.00;46623.28;5016984;28;20125;-66
2023/08/02 06:33:44;;;;;;;7.87;3.70;;;;;;;-145.18;100.00;46623.28;4993807;28;20033;-65
2023/08/02 06:36:09;;;;;;;4.90;3.57;;;;;;;-145.18;100.00;46623.28;5008093;28;20097;-64
2023/08/02 06:38:35;;;;;;;5.03;3.50;;;;;;;-145.18;100.00;46617.41;4999866;28;20044;-64
2023/08/02 06:41:00;;;;;;;7.50;3.90;;;;;;;-145.18;100.00;46625.22;5023179;28;20061;-65
2023/08/02 06:43:26;;;;;;;5.57;3.37;;;;;;;-145.18;100.00;46619.38;5013565;28;20057;-64
2023/08/02 06:45:51;;;;;;;7.17;3.43;;;;;;;-145.18;100.00;46623.28;5026969;28;20021;-65
2023/08/02 06:48:19;;;;;;;4.80;3.00;;;;;;;-145.18;100.00;46617.41;5025455;28;20060;-64
2023/08/02 06:50:44;;;;;;;3.63;2.70;;;;;;;-145.18;100.00;46623.28;5011665;28;20053;-65
2023/08/02 06:53:10;;;;;;;4.53;2.93;;;;;;;-145.18;100.00;46625.22;5014878;28;20550;-65
2023/08/02 06:55:35;;;;;;;8.00;3.13;;;;;;;-145.18;100.00;46621.31;5011473;28;20084;-65
2023/08/02 06:58:00;;;;;;;4.90;2.90;;;;;;;-145.18;100.00;46617.41;5012340;28;20026;-65
2023/08/02 07:00:29;;;;;;;5.17;2.50;;;;;;;-145.18;100.00;46617.41;5014565;28;20137;-65
2023/08/02 07:02:57;;;;;;;5.43;2.50;;;;;;;-145.18;100.00;46621.31;5011863;28;20366;-65
2023/08/02 07:05:24;;;;;;;6.37;2.20;;;;;;;-145.18;100.00;46617.41;5017260;28;20204;-65
2023/08/02 07:07:49;;;;;;;3.93;2.67;;;;;;;-145.18;100.00;46617.41;5015087;28;20065;-65
2023/08/02 07:10:15;;;;;;;4.17;2.60;;;;;;;-145.18;100.00;46613.50;5015239;28;20539;-65
2023/08/02 07:12:40;;;;;;;3.80;2.30;;;;;;;-145.18;100.00;46619.38;5014002;28;20092;-65
2023/08/02 07:15:06;;;;;;;3.70;2.10;;;;;;;-145.18;100.00;46621.31;5011311;28;20073;-65
2023/08/02 07:17:31;;;;;;;4.20;2.20;;;;;;;-145.18;100.00;46617.41;5007983;28;20449;-65
2023/08/02 07:19:57;;;;;;;3.27;2.20;;;;;;;-145.18;100.00;46623.28;5017128;28;20053;-66
2023/08/02 07:22:22;;;;;;;3.20;2.00;;;;;;;-145.18;100.00;46613.50;4996721;28;20037;-65
2023/08/02 07:24:47;;;;;;;3.47;2.27;;;;;;;-145.18;100.00;46615.47;5013457;28;20042;-66
2023/08/02 07:27:13;;;;;;;3.00;2.10;;;;;;;-145.18;100.00;46619.38;5007858;28;20096;-66
2023/08/02 07:29:38;;;;;;;2.37;1.70;;;;;;;-145.18;100.00;46621.31;5025194;28;20556;-65
2023/08/02 07:32:04;;;;;;;3.13;2.10;;;;;;;-145.18;100.00;46617.41;5010935;28;20037;-66
2023/08/02 07:34:29;;;;;;;2.60;1.97;;;;;;;-145.18;100.00;46621.31;4991319;28;20062;-66
2023/08/02 07:36:54;;;;;;;2.40;1.63;;;;;;;-145.18;100.00;46617.41;4997465;28;20064;-65
2023/08/02 07:39:20;;;;;;;2.80;1.57;;;;;;;-145.18;100.00;46621.31;5007945;28;20041;-65
2023/08/02 07:41:45;;;;;;;2.33;1.40;;;;;;;-145.18;100.00;46613.50;5014406;28;20124;-65
2023/08/02 07:44:11;;;;;;;3.33;1.63;;;;;;;-145.18;100.00;46619.38;5009991;28;20034;-65
2023/08/02 07:46:36;;;;;;;2.77;1.70;;;;;;;-145.18;100.00;46617.41;5002677;28;20064;-65
2023/08/02 07:49:01;;;;;;;1.87;1.40;;;;;;;-145.18;100.00;46617.41;5022276;28;20101;-65
2023/08/02 07:51:27;;;;;;;2.33;1.47;;;;;;;-145.18;100.00;46619.38;5013942;28;20062;-65
2023/08/02 07:53:52;;;;;;;1.67;1.30;;;;;;;-145.18;100.00;46619.38;5028667;28;20039;-66
2023/08/02 07:56:19;;;;;;;1.83;1.43;;;;;;;-145.18;100.00;46617.41;5026954;28;20520;-65
2023/08/02 07:58:44;;;;;;;1.80;1.43;;;;;;;-145.18;100.00;46617.41;5022554;28;20029;-65
2023/08/02 08:01:10;;;;;;;2.37;1.43;;;;;;;-145.18;100.00;46617.41;5026459;28;20447;-65
2023/08/02 08:03:36;;;;;;;2.13;1.40;;;;;;;-145.18;100.00;46615.47;5014171;28;20033;-65
2023/08/02 08:06:15;;;;;;;4.23;1.80;;;;;;;-145.18;100.00;46617.41;5025122;28;20362;-65
2023/08/02 08:08:41;;;;;;;2.40;1.60;;;;;;;-145.18;100.00;46617.41;5014969;28;20035;-65
2023/08/02 08:11:06;;;;;;;2.40;1.90;;;;;;;-145.18;100.00;46615.47;5027858;28;20121;-65
2023/08/02 08:13:32;;;;;;;2.43;1.43;;;;;;;-145.18;100.00;46617.41;5017809;28;20397;-66
2023/08/02 08:15:59;;;;;;;1.97;1.43;;;;;;;-145.18;100.00;46611.56;5013110;28;20030;-66
2023/08/02 08:18:25;;;;;;;2.87;1.60;;;;;;;-145.18;100.00;46615.47;5001321;28;20022;-65
2023/08/02 08:20:51;;;;;;;2.10;1.73;;;;;;;-145.18;100.00;46617.41;5013456;28;20033;-66
2023/08/02 08:23:16;;;;;;;3.90;2.30;;;;;;;-145.18;100.00;46617.41;5025802;28;20052;-65
2023/08/02 08:25:41;;;;;;;1.80;1.50;;;;;;;-145.18;100.00;46617.41;5006105;28;20474;-65
2023/08/02 08:28:07;;;;;;;1.93;1.60;;;;;;;-145.18;100.00;46621.31;5015009;28;20049;-65
2023/08/02 08:30:32;;;;;;;1.70;1.60;;;;;;;-145.18;100.00;46621.31;5024797;28;20480;-66
2023/08/02 08:32:58;;;;;;;1.70;1.57;;;;;;;-145.18;100.00;46625.22;5009421;28;20065;-65
2023/08/02 08:35:23;;;;;;;1.60;1.50;;;;;;;-145.18;100.00;46619.38;5014263;28;20116;-65
2023/08/02 08:37:51;;;;;;;1.70;1.50;;;;;;;-145.18;100.00;46623.28;5010102;28;20101;-65
2023/08/02 08:40:17;;;;;;;5.43;1.67;;;;;;;-145.18;100.00;46619.38;5023789;28;20032;-65
2023/08/02 08:42:50;;;;;;;3.47;1.37;;;;;;;-145.18;100.00;46613.50;5017601;28;20116;-66
2023/08/02 08:45:18;;;;;;;3.10;1.40;;;;;;;-145.18;100.00;46619.38;5030098;28;20033;-65
2023/08/02 08:47:45;;;;;;;1.70;1.40;;;;;;;-145.18;100.00;46621.31;5025283;28;20558;-66
2023/08/02 08:50:10;;;;;;;2.27;1.30;;;;;;;-145.18;100.00;46619.38;5031437;28;20385;-66
2023/08/02 08:52:39;;;;;;;2.83;1.47;;;;;;;-145.18;100.00;46619.38;5027547;28;20041;-66
2023/08/02 08:55:06;;;;;;;1.17;1.00;;;;;;;-145.18;100.00;46627.19;5031978;28;20038;-66
2023/08/02 08:57:32;;;;;;;1.10;1.00;;;;;;;-145.18;100.00;46629.13;5010920;28;20054;-66
2023/08/02 08:59:57;;;;;;;1.40;1.20;;;;;;;-145.18;100.00;46627.19;5031626;28;20033;-66
2023/08/02 09:02:23;;;;;;;1.90;1.27;;;;;;;-145.18;100.00;46629.13;5012463;28;20429;-66
2023/08/02 09:04:51;;;;;;;1.43;1.33;;;;;;;-145.18;100.00;46633.06;5031042;28;20049;-66
2023/08/02 09:07:16;;;;;;;1.47;1.20;;;;;;;-145.18;100.00;46633.06;5031037;28;20033;-66
2023/08/02 09:09:42;;;;;;;1.33;1.20;;;;;;;-145.18;100.00;46638.91;5029522;28;20037;-66
2023/08/02 09:12:07;;;;;;;3.30;1.60;;;;;;;-145.18;100.00;46644.78;5012440;28;20038;-66
2023/08/02 09:14:33;;;;;;;1.70;1.60;;;;;;;-145.18;100.00;46640.88;5010988;28;20057;-66
2023/08/02 09:17:03;;;;;;;1.90;1.70;;;;;;;-145.18;100.00;46640.88;5012263;28;20403;-66
2023/08/02 09:19:31;;;;;;;3.53;2.10;;;;;;;-145.18;100.00;46646.72;5025039;28;20056;-65
2023/08/02 09:22:14;;;;;;;1.90;1.80;;;;;;;-145.18;100.00;46646.72;5025829;28;20028;-66
2023/08/02 09:24:41;;;;;;;3.30;2.00;;;;;;;-145.18;100.00;46648.69;5013608;28;20018;-65
2023/08/02 09:27:18;;;;;;;4.50;2.20;;;;;;;-145.18;100.00;46648.69;5018596;28;20033;-66
2023/08/02 09:29:44;;;;;;;3.70;2.20;;;;;;;-145.18;100.00;46648.69;4999629;28;20025;-65
2023/08/02 09:32:09;;;;;;;2.97;2.37;;;;;;;-145.18;100.00;46652.59;5022076;28;20371;-66
2023/08/02 09:34:49;;;;;;;2.80;2.43;;;;;;;-145.18;100.00;46650.63;5018598;28;20037;-66
2023/08/02 09:37:17;;;;;;;2.87;2.20;;;;;;;-145.18;100.00;46644.78;5009430;28;20030;-66
2023/08/02 09:39:50;;;;;;;4.47;2.53;;;;;;;-145.18;100.00;46644.78;5020035;28;20037;-68
2023/08/02 09:42:17;;;;;;;2.30;2.10;;;;;;;-145.18;100.00;46648.69;5017273;28;20045;-66
2023/08/02 09:44:53;;;;;;;2.50;2.30;;;;;;;-145.18;100.00;46644.78;5012782;28;20049;-65
2023/08/02 09:47:19;;;;;;;2.33;2.10;;;;;;;-145.18;100.00;46648.69;5014163;28;20384;-66
2023/08/02 09:50:00;;;;;;;2.80;2.60;;;;;;;-145.18;100.00;46650.63;5015284;28;20042;-66
2023/08/02 09:52:26;;;;;;;4.67;2.40;;;;;;;-145.18;100.00;46644.78;5014951;28;20041;-66
2023/08/02 09:54:53;;;;;;;2.50;2.30;;;;;;;-145.18;100.00;46652.59;5012371;28;20042;-66
2023/08/02 09:57:23;;;;;;;2.40;2.20;;;;;;;-145.18;100.00;46648.69;5017597;28;20125;-66
2023/08/02 09:59:51;;;;;;;2.43;2.03;;;;;;;-145.18;100.00;46650.63;5011159;28;20034;-66
2023/08/02 10:02:19;;;;;;;2.17;1.90;;;;;;;-145.18;100.00;46666.25;5001188;28;20061;-65
2023/08/02 10:04:46;;;;;;;1.63;1.53;;;;;;;-145.18;100.00;46670.16;5018534;28;20157;-65
2023/08/02 10:07:13;;;;;;;3.30;1.70;;;;;;;-145.18;100.00;46674.06;5016015;28;20048;-65
2023/08/02 10:09:40;;;;;;;2.00;1.80;;;;;;;-145.18;100.00;46676.03;5017348;28;20116;-65
2023/08/02 10:12:08;;;;;;;2.30;1.60;;;;;;;-145.18;100.00;46679.94;5014440;28;20041;-65
2023/08/02 10:14:34;;;;;;;1.60;1.50;;;;;;;-145.18;100.00;46679.94;5010892;28;20482;-65
2023/08/02 10:17:02;;;;;;;3.77;1.43;;;;;;;-145.18;100.00;46683.84;5011734;28;20041;-65
2023/08/02 10:19:29;;;;;;;1.70;1.60;;;;;;;-145.18;100.00;46681.88;5010621;28;20037;-65
2023/08/02 10:21:57;;;;;;;2.67;1.60;;;;;;;-145.18;100.00;46689.69;5022721;28;20032;-65
2023/08/02 10:24:28;;;;;;;2.83;1.60;;;;;;;-145.18;100.00;46689.69;5023189;28;20034;-69
2023/08/02 10:26:56;;;;;;;1.37;1.27;;;;;;;-145.18;100.00;46691.66;5023067;28;20310;-69
2023/08/02 10:29:26;;;;;;;3.20;1.30;;;;;;;-145.18;100.00;46693.59;5022425;28;20384;-69
2023/08/02 10:31:52;;;;;;;1.70;1.30;;;;;;;-145.18;100.00;46691.66;5013966;28;20029;-69
2023/08/02 10:34:35;;;;;;;2.17;1.30;;;;;;;-145.18;100.00;46691.66;5016349;28;20041;-69
2023/08/02 10:37:01;;;;;;;5.13;1.50;;;;;;;-145.18;100.00;46693.59;5013922;28;20030;-68
2023/08/02 10:39:45;;;;;;;3.60;1.20;;;;;;;-145.18;100.00;46695.56;5011600;28;20508;-69
2023/08/02 10:42:13;;;;;;;2.27;1.07;;;;;;;-145.18;100.00;46695.56;5015193;28;20033;-69
2023/08/02 10:44:56;;;;;;;4.00;1.13;;;;;;;-145.18;100.00;46695.56;5024889;28;20099;-69
2023/08/02 10:47:25;;;;;;;3.73;1.37;;;;;;;-145.18;100.00;46693.59;5026717;28;20072;-68
2023/08/02 10:49:51;;;;;;;9.87;1.27;;;;;;;-145.18;100.00;46695.56;5016306;28;20488;-68
2023/08/02 10:52:24;;;;;;;4.87;1.00;;;;;;;-145.18;100.00;46691.66;5028860;28;20033;-68
2023/08/02 10:55:06;;;;;;;5.63;1.57;;;;;;;-145.18;100.00;46685.78;5014289;28;20107;-68
2023/08/02 10:57:32;;;;;;;2.80;1.17;;;;;;;-145.18;100.00;46687.75;5028133;28;20033;-69
2023/08/02 10:59:57;;;;;;;4.60;1.30;;;;;;;-145.18;100.00;46691.66;5014587;28;20033;-68
2023/08/02 11:02:25;;;;;;;4.90;1.50;;;;;;;-145.18;100.00;46697.50;5029704;28;20451;-68
2023/08/02 11:04:51;;;;;;;4.17;1.10;;;;;;;-145.18;100.00;46691.66;5029440;28;20041;-68
2023/08/02 11:07:18;;;;;;;5.93;1.50;;;;;;;-145.18;100.00;46699.47;5031392;28;20033;-69